This is the latest recevied weather packets stored in our database for station/object N1IJV-10. If no packets are shown the sender has not sent any weather packets the latest 10 day(s).
| Time | Temp. | Humidity | Pressure | Rain* | Wind** | Luminosity | Snow |
|---|---|---|---|---|---|---|---|
| 1777933245 | 22.78° C | 56% | 998 hPa | 0 mm | - | 239 W/m² | - |
| 1777932942 | 23.89° C | 55% | 998.1 hPa | 0 mm | - | 275 W/m² | - |
| 1777932639 | 23.33° C | 52% | 997.8 hPa | 0 mm | - | 280 W/m² | - |
| 1777932335 | 23.33° C | 52% | 997.9 hPa | 0 mm | - | 93 W/m² | - |
| 1777932032 | 23.33° C | 48% | 997.9 hPa | 0 mm | - | 86 W/m² | - |
| 1777931729 | 25° C | 44% | 997.8 hPa | 0 mm | - | 86 W/m² | - |
| 1777931426 | 25° C | 42% | 997.6 hPa | 0 mm | - | 62 W/m² | - |
| 1777931122 | 25.56° C | 42% | 997.5 hPa | 0 mm | - | 72 W/m² | - |
| 1777930819 | 25.56° C | 40% | 997.7 hPa | 0 mm | - | 85 W/m² | - |
| 1777930515 | 26.11° C | 40% | 997.9 hPa | 0 mm | - | 125 W/m² | - |
| 1777930212 | 26.67° C | 40% | 998 hPa | 0 mm | - | 126 W/m² | - |
| 1777929908 | 26.67° C | 39% | 998.1 hPa | 0 mm | - | 305 W/m² | - |
| 1777929606 | 26.11° C | 38% | 998.1 hPa | 0 mm | - | 129 W/m² | - |
| 1777929303 | 27.22° C | 39% | 998.1 hPa | 0 mm | - | 325 W/m² | - |
| 1777929000 | 27.22° C | 37% | 997.9 hPa | 0 mm | - | 515 W/m² | - |
| 1777928697 | 26.67° C | 41% | 998.5 hPa | 0 mm | - | 535 W/m² | - |
| 1777928393 | 25.56° C | 39% | 998.2 hPa | 0 mm | - | 158 W/m² | - |
| 1777928091 | 26.11° C | 39% | 998.3 hPa | 0 mm | - | 83 W/m² | - |
| 1777927789 | 26.67° C | 37% | 998.2 hPa | 0 mm | - | 166 W/m² | - |
| 1777927487 | 26.11° C | 39% | 998.4 hPa | 0 mm | - | 535 W/m² | - |
| 1777927186 | 26.67° C | 40% | 998.4 hPa | 0 mm | - | 470 W/m² | - |
| 1777926883 | 27.22° C | 38% | 998.5 hPa | 0 mm | - | 324 W/m² | - |
| 1777926579 | 27.22° C | 37% | 998.3 hPa | 0 mm | - | 594 W/m² | - |
| 1777926276 | 27.78° C | 36% | 998.4 hPa | 0 mm | - | 588 W/m² | - |
| 1777925972 | 27.22° C | 38% | 998.4 hPa | 0 mm | - | 586 W/m² | - |
* Rain latest hour (hover to see other rain measurements)
** Current wind speed in m/s (hover to see current wind gust speed)